Latest Weather Observations for Hay Airport

IDN60801

Issued at 8:02 am EDT Tuesday 9 February 2016 (issued every 30 minutes, with the page automatically refreshed every 10 minutes)

About weather observations | Map of weather stations | Latest weather observations for NSW | Other Formats
Station Details ID: 075019 Name: HAY AIRPORT AWS Lat: -34.54 Lon: 144.83 Height: 92.0 m
Data from the previous 72 hours. | See also: Recent months at Hay Airport
Date/Time
EDT
Temp
°C
App
Temp
°C
Dew
Point
Rel
Hum
%
Delta-T
°C
Wind Press
QNH
hPa
Press
MSL
hPa
Rain
since 9 am
mm
Dir
 
Spd
km/h
Gust
km/h
Spd
kts
Gust
kts
09/08:00am 18.9 16.4 11.2 61 4.2 S 15 20 8 11 1018.3 1017.9 0.0
09/07:30am 17.6 16.0 11.4 67 3.4 SSW 11 15 6 8 1018.1 1017.7 0.0
09/07:00am 16.5 15.0 10.6 68 3.1 SSW 9 11 5 6 1017.9 1017.5 0.0
09/06:30am 17.1 15.6 10.7 66 3.4 S 9 15 5 8 1017.8 1017.4 0.0
09/06:00am 17.6 15.7 10.5 63 3.8 S 11 15 6 8 1017.7 1017.3 0.0
09/05:30am 18.1 16.1 10.0 59 4.3 SSW 11 13 6 7 1017.4 1017.0 0.0
09/05:00am 19.1 16.7 10.1 56 4.8 S 13 17 7 9 1017.1 1016.7 0.0
09/04:30am 19.8 17.3 9.7 52 5.4 S 13 17 7 9 1016.9 1016.5 0.0
09/04:00am 20.2 18.0 9.5 50 5.7 SSE 11 15 6 8 1016.8 1016.4 0.0
09/03:30am 21.2 18.7 9.8 48 6.2 SSE 13 19 7 10 1016.6 1016.2 0.0
09/03:00am 22.1 19.6 9.6 45 6.8 SSE 13 17 7 9 1016.7 1016.3 0.0
09/02:30am 23.2 19.5 9.6 42 7.4 SSE 19 26 10 14 1016.8 1016.4 0.0
09/02:00am 23.9 20.2 10.2 42 7.6 S 20 30 11 16 1016.8 1016.4 0.0
09/01:30am 24.5 21.4 10.4 41 7.8 S 17 24 9 13 1016.7 1016.3 0.0
09/01:00am 26.0 21.2 10.2 37 8.8 SSE 26 35 14 19 1016.6 1016.2 0.0
09/12:30am 26.8 22.5 10.9 37 9.0 SSE 24 35 13 19 1016.5 1016.1 0.0
09/12:00am 27.9 23.7 12.3 38 9.1 SSE 26 37 14 20 1016.5 1016.1 0.0
 
Date/Time
EDT
Temp
°C
App
Temp
°C
Dew
Point
Rel
Hum
%
Delta-T
°C
Wind Press
QNH
hPa
Press
MSL
hPa
Rain
since 9 am
mm
Dir
 
Spd
km/h
Gust
km/h
Spd
kts
Gust
kts
08/11:30pm 28.7 24.7 10.4 32 10.4 SSE 22 32 12 17 1016.4 1016.0 0.0
08/11:00pm 29.0 26.1 9.7 30 10.8 SSE 15 20 8 11 1016.4 1016.0 0.0
08/10:30pm 29.3 26.2 8.9 28 11.3 SSE 15 20 8 11 1016.3 1015.9 0.0
08/10:00pm 30.3 27.3 9.2 27 11.8 SSE 15 22 8 12 1016.0 1015.6 0.0
08/09:30pm 31.1 28.1 9.3 26 12.3 S 15 20 8 11 1015.6 1015.1 0.0
08/09:00pm 31.9 29.2 8.8 24 13.0 S 13 17 7 9 1015.4 1014.9 0.0
08/08:30pm 33.0 30.2 8.5 22 13.8 SSE 13 17 7 9 1015.2 1014.7 0.0
08/08:00pm 34.4 31.0 7.5 19 15.0 S 15 22 8 12 1015.0 1014.5 0.0
08/07:30pm 35.2 30.8 6.5 17 15.8 SSE 19 24 10 13 1014.8 1014.3 0.0
08/07:00pm 36.6 32.2 6.7 16 16.6 SSE 19 26 10 14 1014.5 1014.0 0.0
08/06:30pm 36.9 31.4 6.0 15 17.0 S 24 32 13 17 1014.5 1014.0 0.0
08/06:00pm 36.6 32.6 6.7 16 16.6 SSW 17 32 9 17 1014.5 1014.0 0.0
08/05:30pm 35.6 31.1 6.8 17 16.0 S 20 32 11 17 1014.8 1014.3 0.0
08/05:00pm 36.6 33.2 5.8 15 16.9 SSE 13 26 7 14 1015.0 1014.5 0.0
08/04:30pm 37.1 34.0 7.1 16 16.8 SW 13 22 7 12 1015.2 1014.7 0.0
08/04:00pm 36.9 33.0 7.0 16 16.7 SSE 17 28 9 15 1015.6 1015.1 0.0
08/03:30pm 37.5 34.6 8.3 17 16.7 SSW 13 26 7 14 1015.9 1015.5 0.0
08/03:00pm 36.8 32.9 8.6 18 16.1 SSE 19 28 10 15 1016.2 1015.8 0.0
08/02:30pm 35.7 32.3 9.3 20 15.2 S 17 32 9 17 1016.6 1016.2 0.0
08/02:00pm 35.8 32.8 9.3 20 15.2 S 15 32 8 17 1017.0 1016.6 0.0
08/01:30pm 36.2 35.0 10.4 21 15.1 WSW 7 20 4 11 1017.2 1016.8 0.0
08/01:00pm 36.0 34.8 10.2 21 15.1 S 7 19 4 10 1017.6 1017.2 0.0
08/12:30pm 34.3 33.1 10.2 23 14.0 WSW 7 15 4 8 1017.8 1017.4 0.0
08/12:00pm 33.4 32.9 10.7 25 13.2 W 4 15 2 8 1018.1 1017.7 0.0
08/11:30am 33.7 33.2 10.9 25 13.3 NNW 4 9 2 5 1018.3 1017.9 0.0
08/11:00am 32.5 31.7 11.1 27 12.5 WNW 6 13 3 7 1018.4 1018.0 0.0
08/10:30am 31.6 31.8 11.9 30 11.6 NNE 2 11 1 6 1018.6 1018.2 0.0
08/10:00am 29.8 30.1 12.3 34 10.3 NW 2 9 1 5 1018.6 1018.2 0.0
08/09:30am 28.4 29.0 11.9 36 9.6 CALM 0 7 0 4 1018.6 1018.2 0.0
08/09:00am 26.3 25.8 12.0 41 8.2 SSE 6 9 3 5 1018.7 1018.3 0.0
08/08:30am 24.4 23.1 12.4 47 6.9 SE 11 15 6 8 1018.4 1018.0 0.0
08/08:00am 23.2 21.9 12.5 51 6.1 SE 11 17 6 9 1018.3 1017.9 0.0
08/07:30am 21.2 19.8 12.1 56 5.1 SSE 11 15 6 8 1018.0 1017.6 0.0
08/07:00am 18.4 17.3 10.0 58 4.5 SE 6 7 3 4 1017.5 1017.1 0.0
08/06:30am 19.5 18.0 10.5 56 4.9 SSE 9 11 5 6 1017.2 1016.8 0.0
08/06:00am 19.8 18.4 10.8 56 4.9 S 9 11 5 6 1016.8 1016.4 0.0
08/05:30am 20.5 19.2 11.4 56 5.0 S 9 19 5 10 1016.5 1016.1 0.0
08/05:00am 18.6 18.6 9.9 57 4.6 CALM 0 0 0 0 1016.2 1015.8 0.0
08/04:30am 19.1 19.2 10.1 56 4.8 CALM 0 0 0 0 1016.1 1015.7 0.0
08/04:00am 19.4 19.6 10.4 56 4.9 CALM 0 0 0 0 1016.0 1015.6 0.0
08/03:30am 19.6 19.8 10.6 56 4.9 CALM 0 0 0 0 1015.9 1015.5 0.0
08/03:00am 20.4 20.5 10.2 52 5.5 CALM 0 0 0 0 1015.9 1015.5 0.0
08/02:30am 20.7 20.7 9.9 50 5.8 CALM 0 0 0 0 1016.0 1015.6 0.0
08/02:00am 21.3 21.5 10.5 50 5.9 CALM 0 0 0 0 1016.0 1015.6 0.0
08/01:30am 21.8 21.9 10.0 47 6.4 CALM 0 0 0 0 1016.2 1015.8 0.0
08/01:00am 22.5 22.4 9.6 44 7.0 CALM 0 0 0 0 1016.2 1015.8 0.0
08/12:30am 24.2 23.9 10.1 41 7.8 NE 2 6 1 3 1016.2 1015.8 0.0
08/12:00am 24.5 23.1 9.6 39 8.2 ENE 7 9 4 5 1016.2 1015.8 0.0
 
Date/Time
EDT
Temp
°C
App
Temp
°C
Dew
Point
Rel
Hum
%
Delta-T
°C
Wind Press
QNH
hPa
Press
MSL
hPa
Rain
since 9 am
mm
Dir
 
Spd
km/h
Gust
km/h
Spd
kts
Gust
kts
07/11:30pm 25.6 24.3 9.8 37 8.7 E 7 9 4 5 1016.1 1015.7 0.0
07/11:00pm 26.3 25.1 9.6 35 9.2 ESE 6 7 3 4 1016.1 1015.7 0.0
07/10:30pm 27.7 26.0 10.0 33 9.9 ESE 9 11 5 6 1015.9 1015.5 0.0
07/10:00pm 28.8 26.8 10.0 31 10.6 SE 11 15 6 8 1015.7 1015.3 0.0
07/09:30pm 29.6 27.2 10.2 30 11.0 SE 13 15 7 8 1015.3 1014.8 0.0
07/09:00pm 30.3 28.3 10.3 29 11.4 SE 11 15 6 8 1015.0 1014.5 0.0
07/08:30pm 31.6 29.1 9.8 26 12.4 SE 13 15 7 8 1014.5 1014.0 0.0
07/08:00pm 32.7 29.4 9.5 24 13.2 SSE 17 24 9 13 1014.2 1013.7 0.0
07/07:30pm 33.9 32.0 9.2 22 14.1 SE 9 24 5 13 1013.7 1013.2 0.0
07/07:00pm 34.7 32.6 9.9 22 14.4 SE 11 22 6 12 1013.5 1013.0 0.0
07/06:30pm 34.3 31.2 8.8 21 14.5 SSE 15 20 8 11 1013.2 1012.7 0.0
07/06:00pm 34.9 32.5 10.0 22 14.4 SSE 13 26 7 14 1013.0 1012.5 0.0
07/05:30pm 34.9 31.3 10.0 22 14.4 SE 19 30 10 16 1013.1 1012.6 0.0
07/05:00pm 33.2 30.9 10.5 25 13.2 SE 13 26 7 14 1013.4 1012.9 0.0
07/04:30pm 34.4 32.4 10.3 23 14.0 SSE 11 20 6 11 1013.6 1013.1 0.0
07/04:00pm 34.6 32.5 11.1 24 13.8 SE 13 22 7 12 1013.8 1013.3 0.0
07/03:30pm 34.8 32.0 11.2 24 13.9 S 17 22 9 12 1014.2 1013.7 0.0
07/03:00pm 33.4 31.7 11.3 26 13.0 SSE 11 19 6 10 1014.6 1014.1 0.0
07/02:30pm 32.7 31.0 11.3 27 12.5 ESE 11 20 6 11 1014.8 1014.3 0.0
07/02:00pm 32.2 31.7 11.9 29 12.0 NNE 6 17 3 9 1015.1 1014.6 0.0
07/01:30pm 33.9 32.7 11.7 26 13.2 ESE 9 17 5 9 1015.3 1014.8 0.0
07/01:00pm 32.3 31.5 10.9 27 12.4 NNE 6 15 3 8 1015.6 1015.1 0.0
07/12:30pm 31.9 32.5 13.2 32 11.2 NE 2 13 1 7 1015.9 1015.5 0.0
07/12:00pm 32.0 31.5 13.7 33 11.1 N 9 17 5 9 1016.1 1015.7 0.0
07/11:30am 31.2 30.7 13.9 35 10.5 NE 9 17 5 9 1016.4 1016.0 0.0
07/11:00am 29.7 29.0 14.3 39 9.3 NNE 11 19 6 10 1016.4 1016.0 0.0
07/10:30am 28.5 26.2 14.0 41 8.7 NNE 19 26 10 14 1016.5 1016.1 0.0
07/10:00am 28.1 26.0 14.7 44 8.1 NE 19 26 10 14 1016.5 1016.1 0.0
07/09:30am 26.9 24.2 14.6 46 7.4 NE 22 32 12 17 1016.4 1016.0 0.0
07/09:00am 26.1 23.5 14.9 50 6.8 NE 22 32 12 17 1016.3 1015.9 0.0
07/08:30am 24.5 22.2 14.6 54 5.9 NE 20 26 11 14 1016.1 1015.7 0.0
07/08:00am 23.5 21.4 14.8 58 5.2 ENE 19 26 10 14 1015.7 1015.3 0.0
07/07:30am 22.4 20.5 14.3 60 4.8 ENE 17 26 9 14 1015.4 1014.9 0.0
07/07:00am 21.5 20.1 14.4 64 4.2 ENE 15 20 8 11 1015.1 1014.6 0.0
07/06:30am 19.4 18.4 13.3 68 3.5 E 11 15 6 8 1014.7 1014.2 0.0
07/06:00am 19.2 17.9 12.5 65 3.8 E 11 15 6 8 1014.3 1013.8 0.0
07/05:30am 19.3 17.9 12.1 63 4.0 ESE 11 13 6 7 1014.0 1013.5 0.0
07/05:00am 19.5 18.3 11.5 60 4.4 ESE 9 11 5 6 1013.8 1013.3 0.0
07/04:30am 20.2 18.7 11.9 59 4.6 ESE 11 15 6 8 1013.6 1013.1 0.0
07/04:00am 20.0 18.7 11.2 57 4.8 ESE 9 13 5 7 1013.7 1013.2 0.0
07/03:30am 20.0 18.5 10.4 54 5.2 ESE 9 9 5 5 1013.7 1013.2 0.0
07/03:00am 20.2 19.0 10.3 53 5.4 ESE 7 11 4 6 1013.9 1013.4 0.0
07/02:30am 20.3 19.1 10.4 53 5.4 SE 7 9 4 5 1013.9 1013.4 0.0
07/02:00am 20.6 19.4 10.4 52 5.6 SE 7 9 4 5 1014.0 1013.5 0.0
07/01:30am 21.5 20.4 10.6 50 6.0 ESE 7 9 4 5 1014.3 1013.8 0.0
07/01:00am 21.7 20.7 10.2 48 6.3 ESE 6 7 3 4 1014.4 1013.9 0.0
07/12:30am 22.1 20.9 10.3 47 6.5 SE 7 9 4 5 1014.5 1014.0 0.0
07/12:00am 22.9 21.7 10.3 45 6.9 SE 7 9 4 5 1014.4 1013.9 0.0
 
Date/Time
EDT
Temp
°C
App
Temp
°C
Dew
Point
Rel
Hum
%
Delta-T
°C
Wind Press
QNH
hPa
Press
MSL
hPa
Rain
since 9 am
mm
Dir
 
Spd
km/h
Gust
km/h
Spd
kts
Gust
kts
06/11:30pm 23.7 22.2 10.4 43 7.4 SE 9 11 5 6 1014.5 1014.0 0.0
06/11:00pm 24.7 22.8 10.6 41 7.9 ESE 11 13 6 7 1014.4 1013.9 0.0
06/10:30pm 24.8 22.8 10.3 40 8.1 ESE 11 13 6 7 1014.3 1013.8 0.0
06/10:00pm 25.4 23.8 10.1 38 8.5 ESE 9 11 5 6 1014.0 1013.5 0.0
06/09:30pm 26.3 24.6 10.0 36 9.1 ESE 9 13 5 7 1013.6 1013.1 0.0
06/09:00pm 27.5 25.9 10.2 34 9.7 ESE 9 11 5 6 1013.3 1012.8 0.0
06/08:30pm 28.6 26.5 9.8 31 10.6 ESE 11 15 6 8 1013.0 1012.5 0.0
06/08:00pm 30.0 27.2 10.0 29 11.4 ESE 15 22 8 12 1012.6 1012.1 0.0
06/07:30pm 30.9 28.7 9.2 26 12.2 ESE 11 17 6 9 1012.3 1011.8 0.0
06/07:00pm 31.1 28.2 8.2 24 12.7 ENE 13 20 7 11 1012.0 1011.5 0.0
06/06:30pm 31.7 28.8 8.0 23 13.1 SE 13 20 7 11 1011.9 1011.4 0.0
06/06:00pm 32.0 28.1 7.0 21 13.7 ESE 17 30 9 16 1011.9 1011.4 0.0
06/05:30pm 32.3 27.9 6.5 20 14.0 E 19 26 10 14 1012.1 1011.6 0.0
06/05:00pm 31.7 28.8 6.7 21 13.6 E 11 28 6 15 1012.3 1011.8 0.0
06/04:30pm 32.3 28.4 7.2 21 13.8 SE 17 26 9 14 1012.5 1012.0 0.0
06/04:00pm 31.6 27.7 7.3 22 13.3 ESE 17 30 9 16 1013.0 1012.5 0.0
06/03:30pm 31.5 28.7 8.5 24 12.8 E 13 24 7 13 1013.3 1012.8 0.0
06/03:00pm 31.5 28.1 9.1 25 12.6 ENE 17 28 9 15 1013.8 1013.3 0.0
06/02:30pm 30.3 26.3 8.1 25 12.2 E 19 32 10 17 1014.2 1013.7 0.0
06/02:00pm 29.9 26.7 8.3 26 11.9 E 15 26 8 14 1014.6 1014.1 0.0
06/01:30pm 29.3 25.1 8.4 27 11.5 E 20 30 11 16 1015.0 1014.5 0.0
06/01:00pm 28.8 25.4 9.0 29 11.0 ENE 17 28 9 15 1015.2 1014.7 0.0
06/12:30pm 28.3 24.4 8.6 29 10.8 ENE 19 32 10 17 1015.6 1015.1 0.0
06/12:00pm 27.3 24.5 10.1 34 9.6 ENE 15 26 8 14 1016.1 1015.7 0.0
06/11:30am 27.5 24.5 10.7 35 9.5 E 17 37 9 20 1016.3 1015.9 0.0
06/11:00am 26.5 23.1 11.4 39 8.6 ENE 20 30 11 16 1016.6 1016.2 0.0
06/10:30am 25.9 22.2 11.6 40 8.2 ENE 22 30 12 16 1016.6 1016.2 0.0
06/10:00am 24.2 19.4 11.5 45 7.2 ENE 28 33 15 18 1016.8 1016.4 0.0
06/09:30am 23.3 18.4 11.4 47 6.7 ENE 28 35 15 19 1017.0 1016.6 0.0
06/09:00am 22.7 18.3 11.7 49 6.2 ENE 26 35 14 19 1017.0 1016.6 0.0
06/08:30am 21.7 16.9 11.7 53 5.6 ENE 28 41 15 22 1016.9 1016.5 0.0

Other Formats:

Comma delimited format used in spreadsheet applications
http://www.bom.gov.au/fwo/IDN60801/IDN60801.94702.axf

JavaScript Object Notation format (JSON) in row-major order
http://www.bom.gov.au/fwo/IDN60801/IDN60801.94702.json